sensor_id;sensor_type;location;lat;lon;timestamp;temperature;humidity
19538;DHT22;9914;51.008;4.300;2024-01-07T00:01:56;4.10;99.90
19538;DHT22;9914;51.008;4.300;2024-01-07T00:04:22;4.20;99.90
19538;DHT22;9914;51.008;4.300;2024-01-07T00:06:47;4.40;99.90
19538;DHT22;9914;51.008;4.300;2024-01-07T00:09:13;4.60;99.90
19538;DHT22;9914;51.008;4.300;2024-01-07T00:11:40;4.60;99.90
19538;DHT22;9914;51.008;4.300;2024-01-07T00:14:05;4.60;99.90
19538;DHT22;9914;51.008;4.300;2024-01-07T00:16:31;4.40;99.90
19538;DHT22;9914;51.008;4.300;2024-01-07T00:18:57;4.40;99.90
19538;DHT22;9914;51.008;4.300;2024-01-07T00:21:23;4.30;99.90
19538;DHT22;9914;51.008;4.300;2024-01-07T00:23:49;4.20;99.90
19538;DHT22;9914;51.008;4.300;2024-01-07T00:26:15;4.30;99.90
19538;DHT22;9914;51.008;4.300;2024-01-07T00:28:41;4.20;99.90
19538;DHT22;9914;51.008;4.300;2024-01-07T00:31:06;4.20;99.90
19538;DHT22;9914;51.008;4.300;2024-01-07T00:33:35;4.30;99.90
19538;DHT22;9914;51.008;4.300;2024-01-07T00:36:03;4.20;99.90
19538;DHT22;9914;51.008;4.300;2024-01-07T00:38:28;4.20;99.90
19538;DHT22;9914;51.008;4.300;2024-01-07T00:40:54;4.20;99.90
19538;DHT22;9914;51.008;4.300;2024-01-07T00:43:20;4.30;99.90
19538;DHT22;9914;51.008;4.300;2024-01-07T00:45:45;4.30;99.90
19538;DHT22;9914;51.008;4.300;2024-01-07T00:48:12;4.20;99.90
19538;DHT22;9914;51.008;4.300;2024-01-07T00:50:37;4.30;99.90
19538;DHT22;9914;51.008;4.300;2024-01-07T00:53:03;4.20;99.90
19538;DHT22;9914;51.008;4.300;2024-01-07T00:55:29;4.20;99.90
19538;DHT22;9914;51.008;4.300;2024-01-07T00:57:54;4.10;99.90
19538;DHT22;9914;51.008;4.300;2024-01-07T01:00:20;4.30;99.90
19538;DHT22;9914;51.008;4.300;2024-01-07T01:02:46;4.30;99.90
19538;DHT22;9914;51.008;4.300;2024-01-07T01:05:12;4.10;99.90
19538;DHT22;9914;51.008;4.300;2024-01-07T01:07:37;4.10;99.90
19538;DHT22;9914;51.008;4.300;2024-01-07T01:10:03;4.10;99.90
19538;DHT22;9914;51.008;4.300;2024-01-07T01:12:29;4.10;99.90
19538;DHT22;9914;51.008;4.300;2024-01-07T01:14:55;4.00;99.90
19538;DHT22;9914;51.008;4.300;2024-01-07T01:17:20;4.20;99.90
19538;DHT22;9914;51.008;4.300;2024-01-07T01:19:46;4.00;99.90
19538;DHT22;9914;51.008;4.300;2024-01-07T01:22:12;3.90;99.90
19538;DHT22;9914;51.008;4.300;2024-01-07T01:24:38;3.90;99.90
19538;DHT22;9914;51.008;4.300;2024-01-07T01:27:03;3.80;99.90
19538;DHT22;9914;51.008;4.300;2024-01-07T01:29:29;3.90;99.90
19538;DHT22;9914;51.008;4.300;2024-01-07T01:31:55;3.90;99.90
19538;DHT22;9914;51.008;4.300;2024-01-07T01:34:21;3.70;99.90
19538;DHT22;9914;51.008;4.300;2024-01-07T01:36:47;3.80;99.90
19538;DHT22;9914;51.008;4.300;2024-01-07T01:39:12;3.90;99.90
19538;DHT22;9914;51.008;4.300;2024-01-07T01:41:38;3.90;99.90
19538;DHT22;9914;51.008;4.300;2024-01-07T01:44:05;3.80;99.90
19538;DHT22;9914;51.008;4.300;2024-01-07T01:46:30;4.00;99.90
19538;DHT22;9914;51.008;4.300;2024-01-07T01:48:57;4.10;99.90
19538;DHT22;9914;51.008;4.300;2024-01-07T01:51:24;4.10;99.90
19538;DHT22;9914;51.008;4.300;2024-01-07T01:53:50;4.00;99.90
19538;DHT22;9914;51.008;4.300;2024-01-07T01:56:20;3.90;99.90
19538;DHT22;9914;51.008;4.300;2024-01-07T01:58:46;4.00;99.90
19538;DHT22;9914;51.008;4.300;2024-01-07T02:01:13;3.90;99.90
19538;DHT22;9914;51.008;4.300;2024-01-07T02:03:39;3.70;99.90
19538;DHT22;9914;51.008;4.300;2024-01-07T02:06:05;3.80;99.90
19538;DHT22;9914;51.008;4.300;2024-01-07T02:08:31;3.70;99.90
19538;DHT22;9914;51.008;4.300;2024-01-07T02:10:57;3.70;99.90
19538;DHT22;9914;51.008;4.300;2024-01-07T02:13:22;3.80;99.90
19538;DHT22;9914;51.008;4.300;2024-01-07T02:15:48;3.80;99.90
19538;DHT22;9914;51.008;4.300;2024-01-07T02:18:14;3.90;99.90
19538;DHT22;9914;51.008;4.300;2024-01-07T02:20:39;3.70;99.90
19538;DHT22;9914;51.008;4.300;2024-01-07T02:23:05;3.80;99.90
19538;DHT22;9914;51.008;4.300;2024-01-07T02:25:37;3.70;99.90
19538;DHT22;9914;51.008;4.300;2024-01-07T02:28:03;3.70;99.90
19538;DHT22;9914;51.008;4.300;2024-01-07T02:30:29;3.50;99.90
19538;DHT22;9914;51.008;4.300;2024-01-07T02:32:55;3.50;99.90
19538;DHT22;9914;51.008;4.300;2024-01-07T02:35:20;3.40;99.90
19538;DHT22;9914;51.008;4.300;2024-01-07T02:37:46;3.60;99.90
19538;DHT22;9914;51.008;4.300;2024-01-07T02:40:12;3.60;99.90
19538;DHT22;9914;51.008;4.300;2024-01-07T02:42:37;3.60;99.90
19538;DHT22;9914;51.008;4.300;2024-01-07T02:45:03;3.40;99.90
19538;DHT22;9914;51.008;4.300;2024-01-07T02:47:29;3.30;99.90
19538;DHT22;9914;51.008;4.300;2024-01-07T02:49:54;3.20;99.90
19538;DHT22;9914;51.008;4.300;2024-01-07T02:52:20;3.30;99.90
19538;DHT22;9914;51.008;4.300;2024-01-07T02:54:46;3.30;99.90
19538;DHT22;9914;51.008;4.300;2024-01-07T02:57:11;3.30;99.90
19538;DHT22;9914;51.008;4.300;2024-01-07T02:59:37;3.20;99.90
19538;DHT22;9914;51.008;4.300;2024-01-07T03:02:03;3.20;99.90
19538;DHT22;9914;51.008;4.300;2024-01-07T03:04:28;3.30;99.90
19538;DHT22;9914;51.008;4.300;2024-01-07T03:06:54;3.30;99.90
19538;DHT22;9914;51.008;4.300;2024-01-07T03:09:19;3.30;99.90
19538;DHT22;9914;51.008;4.300;2024-01-07T03:11:45;3.10;99.90
19538;DHT22;9914;51.008;4.300;2024-01-07T03:14:11;3.00;99.90
19538;DHT22;9914;51.008;4.300;2024-01-07T03:16:36;3.10;99.90
19538;DHT22;9914;51.008;4.300;2024-01-07T03:19:02;3.10;99.90
19538;DHT22;9914;51.008;4.300;2024-01-07T03:21:28;3.10;99.90
19538;DHT22;9914;51.008;4.300;2024-01-07T03:23:54;3.10;99.90
19538;DHT22;9914;51.008;4.300;2024-01-07T03:26:20;3.10;99.90
19538;DHT22;9914;51.008;4.300;2024-01-07T03:28:45;3.30;99.90
19538;DHT22;9914;51.008;4.300;2024-01-07T03:31:13;3.30;99.90
19538;DHT22;9914;51.008;4.300;2024-01-07T03:33:41;3.10;99.90
19538;DHT22;9914;51.008;4.300;2024-01-07T03:36:11;3.10;99.90
19538;DHT22;9914;51.008;4.300;2024-01-07T03:38:38;3.10;99.90
19538;DHT22;9914;51.008;4.300;2024-01-07T03:41:04;3.10;99.90
19538;DHT22;9914;51.008;4.300;2024-01-07T03:43:30;3.30;99.90
19538;DHT22;9914;51.008;4.300;2024-01-07T03:45:56;3.30;99.90
19538;DHT22;9914;51.008;4.300;2024-01-07T03:48:21;3.20;99.90
19538;DHT22;9914;51.008;4.300;2024-01-07T03:50:47;3.20;99.90
19538;DHT22;9914;51.008;4.300;2024-01-07T03:53:13;3.20;99.90
19538;DHT22;9914;51.008;4.300;2024-01-07T03:55:39;3.20;99.90
19538;DHT22;9914;51.008;4.300;2024-01-07T03:58:05;3.30;99.90
19538;DHT22;9914;51.008;4.300;2024-01-07T04:00:31;3.40;99.90
19538;DHT22;9914;51.008;4.300;2024-01-07T04:02:57;3.20;99.90
19538;DHT22;9914;51.008;4.300;2024-01-07T04:05:22;3.30;99.90
19538;DHT22;9914;51.008;4.300;2024-01-07T04:07:48;3.50;99.90
19538;DHT22;9914;51.008;4.300;2024-01-07T04:10:16;3.50;99.90
19538;DHT22;9914;51.008;4.300;2024-01-07T04:12:42;3.40;99.90
19538;DHT22;9914;51.008;4.300;2024-01-07T04:15:08;3.50;99.90
19538;DHT22;9914;51.008;4.300;2024-01-07T04:17:34;3.50;99.90
19538;DHT22;9914;51.008;4.300;2024-01-07T04:19:59;3.50;99.90
19538;DHT22;9914;51.008;4.300;2024-01-07T04:22:25;3.40;99.90
19538;DHT22;9914;51.008;4.300;2024-01-07T04:24:50;3.40;99.90
19538;DHT22;9914;51.008;4.300;2024-01-07T04:27:16;3.40;99.90
19538;DHT22;9914;51.008;4.300;2024-01-07T04:29:42;3.40;99.90
19538;DHT22;9914;51.008;4.300;2024-01-07T04:32:07;3.40;99.90
19538;DHT22;9914;51.008;4.300;2024-01-07T04:34:33;3.40;99.90
19538;DHT22;9914;51.008;4.300;2024-01-07T04:36:58;3.20;99.90
19538;DHT22;9914;51.008;4.300;2024-01-07T04:39:24;3.20;99.90
19538;DHT22;9914;51.008;4.300;2024-01-07T04:41:50;3.10;99.90
19538;DHT22;9914;51.008;4.300;2024-01-07T04:44:15;3.20;99.90
19538;DHT22;9914;51.008;4.300;2024-01-07T04:46:41;3.50;99.90
19538;DHT22;9914;51.008;4.300;2024-01-07T04:49:07;3.30;99.90
19538;DHT22;9914;51.008;4.300;2024-01-07T04:51:33;3.20;99.90
19538;DHT22;9914;51.008;4.300;2024-01-07T04:53:59;3.40;99.90
19538;DHT22;9914;51.008;4.300;2024-01-07T04:56:24;3.50;99.90
19538;DHT22;9914;51.008;4.300;2024-01-07T04:58:50;3.40;99.90
19538;DHT22;9914;51.008;4.300;2024-01-07T05:01:16;3.50;99.90
19538;DHT22;9914;51.008;4.300;2024-01-07T05:03:41;3.30;99.90
19538;DHT22;9914;51.008;4.300;2024-01-07T05:06:10;3.40;99.90
19538;DHT22;9914;51.008;4.300;2024-01-07T05:08:42;3.30;99.90
19538;DHT22;9914;51.008;4.300;2024-01-07T05:11:08;3.30;99.90
19538;DHT22;9914;51.008;4.300;2024-01-07T05:13:35;3.30;99.90
19538;DHT22;9914;51.008;4.300;2024-01-07T05:16:00;3.40;99.90
19538;DHT22;9914;51.008;4.300;2024-01-07T05:18:26;3.30;99.90
19538;DHT22;9914;51.008;4.300;2024-01-07T05:20:52;3.40;99.90
19538;DHT22;9914;51.008;4.300;2024-01-07T05:23:18;3.40;99.90
19538;DHT22;9914;51.008;4.300;2024-01-07T05:25:45;3.40;99.90
19538;DHT22;9914;51.008;4.300;2024-01-07T05:28:14;3.10;99.90
19538;DHT22;9914;51.008;4.300;2024-01-07T05:30:40;3.10;99.90
19538;DHT22;9914;51.008;4.300;2024-01-07T05:33:06;3.20;99.90
19538;DHT22;9914;51.008;4.300;2024-01-07T05:35:32;3.20;99.90
19538;DHT22;9914;51.008;4.300;2024-01-07T05:37:58;3.40;99.90
19538;DHT22;9914;51.008;4.300;2024-01-07T05:40:24;3.30;99.90
19538;DHT22;9914;51.008;4.300;2024-01-07T05:42:49;3.40;99.90
19538;DHT22;9914;51.008;4.300;2024-01-07T05:45:15;3.40;99.90
19538;DHT22;9914;51.008;4.300;2024-01-07T05:47:41;3.50;99.90
19538;DHT22;9914;51.008;4.300;2024-01-07T05:50:07;3.50;99.90
19538;DHT22;9914;51.008;4.300;2024-01-07T05:52:33;3.50;99.90
19538;DHT22;9914;51.008;4.300;2024-01-07T05:54:59;3.30;99.90
19538;DHT22;9914;51.008;4.300;2024-01-07T05:57:25;3.20;99.90
19538;DHT22;9914;51.008;4.300;2024-01-07T05:59:50;3.10;99.90
19538;DHT22;9914;51.008;4.300;2024-01-07T06:02:17;3.20;99.90
19538;DHT22;9914;51.008;4.300;2024-01-07T06:04:43;2.90;99.90
19538;DHT22;9914;51.008;4.300;2024-01-07T06:07:09;2.90;99.90
19538;DHT22;9914;51.008;4.300;2024-01-07T06:09:34;2.90;99.90
19538;DHT22;9914;51.008;4.300;2024-01-07T06:12:00;3.00;99.90
19538;DHT22;9914;51.008;4.300;2024-01-07T06:14:26;2.80;99.90
19538;DHT22;9914;51.008;4.300;2024-01-07T06:16:52;2.90;99.90
19538;DHT22;9914;51.008;4.300;2024-01-07T06:19:18;3.00;99.90
19538;DHT22;9914;51.008;4.300;2024-01-07T06:21:43;2.90;99.90
19538;DHT22;9914;51.008;4.300;2024-01-07T06:24:09;3.00;99.90
19538;DHT22;9914;51.008;4.300;2024-01-07T06:26:35;3.00;99.90
19538;DHT22;9914;51.008;4.300;2024-01-07T06:29:01;2.90;99.90
19538;DHT22;9914;51.008;4.300;2024-01-07T06:31:27;2.90;99.90
19538;DHT22;9914;51.008;4.300;2024-01-07T06:33:53;2.80;99.90
19538;DHT22;9914;51.008;4.300;2024-01-07T06:36:21;2.90;99.90
19538;DHT22;9914;51.008;4.300;2024-01-07T06:38:47;2.90;99.90
19538;DHT22;9914;51.008;4.300;2024-01-07T06:41:14;3.10;99.90
19538;DHT22;9914;51.008;4.300;2024-01-07T06:43:40;2.90;99.90
19538;DHT22;9914;51.008;4.300;2024-01-07T06:46:06;2.90;99.90
19538;DHT22;9914;51.008;4.300;2024-01-07T06:48:31;2.80;99.90
19538;DHT22;9914;51.008;4.300;2024-01-07T06:50:57;2.80;99.90
19538;DHT22;9914;51.008;4.300;2024-01-07T06:53:23;2.80;99.90
19538;DHT22;9914;51.008;4.300;2024-01-07T06:55:49;2.60;99.90
19538;DHT22;9914;51.008;4.300;2024-01-07T06:58:14;2.60;99.90
19538;DHT22;9914;51.008;4.300;2024-01-07T07:00:40;2.60;99.90
19538;DHT22;9914;51.008;4.300;2024-01-07T07:03:06;2.70;99.90
19538;DHT22;9914;51.008;4.300;2024-01-07T07:05:32;2.70;99.90
19538;DHT22;9914;51.008;4.300;2024-01-07T07:07:57;2.80;99.90
19538;DHT22;9914;51.008;4.300;2024-01-07T07:10:23;2.80;99.90
19538;DHT22;9914;51.008;4.300;2024-01-07T07:12:49;2.90;99.90
19538;DHT22;9914;51.008;4.300;2024-01-07T07:15:16;3.10;99.90
19538;DHT22;9914;51.008;4.300;2024-01-07T07:17:42;3.10;99.90
19538;DHT22;9914;51.008;4.300;2024-01-07T07:20:08;2.90;99.90
19538;DHT22;9914;51.008;4.300;2024-01-07T07:22:34;2.80;99.90
19538;DHT22;9914;51.008;4.300;2024-01-07T07:25:00;2.90;99.90
19538;DHT22;9914;51.008;4.300;2024-01-07T07:27:26;3.00;99.90
19538;DHT22;9914;51.008;4.300;2024-01-07T07:29:51;2.80;99.90
19538;DHT22;9914;51.008;4.300;2024-01-07T07:32:17;2.90;99.90
19538;DHT22;9914;51.008;4.300;2024-01-07T07:34:43;3.10;99.90
19538;DHT22;9914;51.008;4.300;2024-01-07T07:37:09;3.00;99.90
19538;DHT22;9914;51.008;4.300;2024-01-07T07:39:35;3.10;99.90
19538;DHT22;9914;51.008;4.300;2024-01-07T07:42:01;2.90;99.90
19538;DHT22;9914;51.008;4.300;2024-01-07T07:44:27;2.80;99.90
19538;DHT22;9914;51.008;4.300;2024-01-07T07:46:52;2.90;99.90
19538;DHT22;9914;51.008;4.300;2024-01-07T07:49:18;2.80;99.90
19538;DHT22;9914;51.008;4.300;2024-01-07T07:51:44;2.80;99.90
19538;DHT22;9914;51.008;4.300;2024-01-07T07:54:10;2.70;99.90
19538;DHT22;9914;51.008;4.300;2024-01-07T07:56:35;2.90;99.90
19538;DHT22;9914;51.008;4.300;2024-01-07T07:59:02;2.90;99.90
19538;DHT22;9914;51.008;4.300;2024-01-07T08:01:28;2.90;99.90
19538;DHT22;9914;51.008;4.300;2024-01-07T08:03:54;2.90;99.90
19538;DHT22;9914;51.008;4.300;2024-01-07T08:06:19;3.00;99.90
19538;DHT22;9914;51.008;4.300;2024-01-07T08:08:45;3.00;99.90
19538;DHT22;9914;51.008;4.300;2024-01-07T08:11:11;2.80;99.90
19538;DHT22;9914;51.008;4.300;2024-01-07T08:13:37;2.90;99.90
19538;DHT22;9914;51.008;4.300;2024-01-07T08:16:04;3.00;99.90
19538;DHT22;9914;51.008;4.300;2024-01-07T08:18:30;3.00;99.90
19538;DHT22;9914;51.008;4.300;2024-01-07T08:20:56;3.10;99.90
19538;DHT22;9914;51.008;4.300;2024-01-07T08:23:22;3.00;99.90
19538;DHT22;9914;51.008;4.300;2024-01-07T08:25:48;2.90;99.90
19538;DHT22;9914;51.008;4.300;2024-01-07T08:28:13;2.90;99.90
19538;DHT22;9914;51.008;4.300;2024-01-07T08:30:39;3.10;99.90
19538;DHT22;9914;51.008;4.300;2024-01-07T08:33:05;3.40;99.90
19538;DHT22;9914;51.008;4.300;2024-01-07T08:35:30;3.10;99.90
19538;DHT22;9914;51.008;4.300;2024-01-07T08:37:56;3.10;99.90
19538;DHT22;9914;51.008;4.300;2024-01-07T08:40:22;2.90;99.90
19538;DHT22;9914;51.008;4.300;2024-01-07T08:42:48;3.00;99.90
19538;DHT22;9914;51.008;4.300;2024-01-07T08:45:14;3.10;99.90
19538;DHT22;9914;51.008;4.300;2024-01-07T08:47:39;3.00;99.90
19538;DHT22;9914;51.008;4.300;2024-01-07T08:50:05;3.10;99.90
19538;DHT22;9914;51.008;4.300;2024-01-07T08:52:31;3.10;99.90
19538;DHT22;9914;51.008;4.300;2024-01-07T08:54:56;3.10;99.90
19538;DHT22;9914;51.008;4.300;2024-01-07T08:57:22;3.00;99.90
19538;DHT22;9914;51.008;4.300;2024-01-07T08:59:49;3.00;99.90
19538;DHT22;9914;51.008;4.300;2024-01-07T09:02:15;3.20;99.90
19538;DHT22;9914;51.008;4.300;2024-01-07T09:04:40;3.10;99.90
19538;DHT22;9914;51.008;4.300;2024-01-07T09:07:06;3.10;99.90
19538;DHT22;9914;51.008;4.300;2024-01-07T09:09:32;3.10;99.90
19538;DHT22;9914;51.008;4.300;2024-01-07T09:11:58;2.80;99.90
19538;DHT22;9914;51.008;4.300;2024-01-07T09:14:25;2.90;99.90
19538;DHT22;9914;51.008;4.300;2024-01-07T09:16:51;3.00;99.90
19538;DHT22;9914;51.008;4.300;2024-01-07T09:19:17;3.00;99.90
19538;DHT22;9914;51.008;4.300;2024-01-07T09:21:43;2.90;99.90
19538;DHT22;9914;51.008;4.300;2024-01-07T09:24:09;2.90;99.90
19538;DHT22;9914;51.008;4.300;2024-01-07T09:26:35;2.80;99.90
19538;DHT22;9914;51.008;4.300;2024-01-07T09:29:00;2.70;99.90
19538;DHT22;9914;51.008;4.300;2024-01-07T09:31:27;2.60;99.90
19538;DHT22;9914;51.008;4.300;2024-01-07T09:33:52;2.70;99.90
19538;DHT22;9914;51.008;4.300;2024-01-07T09:36:18;2.80;99.90
19538;DHT22;9914;51.008;4.300;2024-01-07T09:38:44;3.00;99.90
19538;DHT22;9914;51.008;4.300;2024-01-07T09:41:09;3.10;99.90
19538;DHT22;9914;51.008;4.300;2024-01-07T09:43:35;3.00;99.90
19538;DHT22;9914;51.008;4.300;2024-01-07T09:46:02;2.90;99.90
19538;DHT22;9914;51.008;4.300;2024-01-07T09:48:28;2.80;99.90
19538;DHT22;9914;51.008;4.300;2024-01-07T09:50:55;2.60;99.90
19538;DHT22;9914;51.008;4.300;2024-01-07T09:53:25;2.50;99.90
19538;DHT22;9914;51.008;4.300;2024-01-07T09:56:11;2.80;99.90
19538;DHT22;9914;51.008;4.300;2024-01-07T09:58:42;2.90;99.90
19538;DHT22;9914;51.008;4.300;2024-01-07T10:01:08;2.80;99.90
19538;DHT22;9914;51.008;4.300;2024-01-07T10:03:34;2.80;99.90
19538;DHT22;9914;51.008;4.300;2024-01-07T10:06:00;2.90;99.90
19538;DHT22;9914;51.008;4.300;2024-01-07T10:08:26;3.00;99.90
19538;DHT22;9914;51.008;4.300;2024-01-07T10:10:51;2.90;99.90
19538;DHT22;9914;51.008;4.300;2024-01-07T10:13:17;3.10;99.90
19538;DHT22;9914;51.008;4.300;2024-01-07T10:15:42;3.00;99.90
19538;DHT22;9914;51.008;4.300;2024-01-07T10:18:09;2.90;99.90
19538;DHT22;9914;51.008;4.300;2024-01-07T10:20:34;2.80;99.90
19538;DHT22;9914;51.008;4.300;2024-01-07T10:23:03;2.90;99.90
19538;DHT22;9914;51.008;4.300;2024-01-07T10:25:32;2.80;99.90
19538;DHT22;9914;51.008;4.300;2024-01-07T10:28:01;2.90;99.90
19538;DHT22;9914;51.008;4.300;2024-01-07T10:30:27;3.10;99.90
19538;DHT22;9914;51.008;4.300;2024-01-07T10:32:57;3.30;99.90
19538;DHT22;9914;51.008;4.300;2024-01-07T10:35:30;3.20;99.90
19538;DHT22;9914;51.008;4.300;2024-01-07T10:37:59;3.20;99.90
19538;DHT22;9914;51.008;4.300;2024-01-07T10:40:27;3.00;99.90
19538;DHT22;9914;51.008;4.300;2024-01-07T10:42:54;2.80;99.90
19538;DHT22;9914;51.008;4.300;2024-01-07T10:45:21;2.90;99.90
19538;DHT22;9914;51.008;4.300;2024-01-07T10:47:49;2.90;99.90
19538;DHT22;9914;51.008;4.300;2024-01-07T10:50:18;2.90;99.90
19538;DHT22;9914;51.008;4.300;2024-01-07T10:52:48;2.80;99.90
19538;DHT22;9914;51.008;4.300;2024-01-07T10:55:15;2.70;99.90
19538;DHT22;9914;51.008;4.300;2024-01-07T10:57:44;2.80;99.90
19538;DHT22;9914;51.008;4.300;2024-01-07T11:00:12;2.70;99.90
19538;DHT22;9914;51.008;4.300;2024-01-07T11:05:50;2.80;99.90
19538;DHT22;9914;51.008;4.300;2024-01-07T11:11:03;2.80;99.90
19538;DHT22;9914;51.008;4.300;2024-01-07T11:13:37;2.70;99.90
19538;DHT22;9914;51.008;4.300;2024-01-07T11:16:06;2.80;99.90
19538;DHT22;9914;51.008;4.300;2024-01-07T11:18:39;2.80;99.90
19538;DHT22;9914;51.008;4.300;2024-01-07T11:21:05;2.80;99.90
19538;DHT22;9914;51.008;4.300;2024-01-07T11:23:43;2.80;99.90
19538;DHT22;9914;51.008;4.300;2024-01-07T11:26:08;2.80;99.90
19538;DHT22;9914;51.008;4.300;2024-01-07T11:28:55;3.00;99.90
19538;DHT22;9914;51.008;4.300;2024-01-07T11:34:08;2.80;99.90
19538;DHT22;9914;51.008;4.300;2024-01-07T11:36:37;2.90;99.90
19538;DHT22;9914;51.008;4.300;2024-01-07T11:39:04;2.80;99.90
19538;DHT22;9914;51.008;4.300;2024-01-07T11:41:34;2.80;99.90
19538;DHT22;9914;51.008;4.300;2024-01-07T11:44:01;2.90;99.90
19538;DHT22;9914;51.008;4.300;2024-01-07T11:46:27;2.70;99.90
19538;DHT22;9914;51.008;4.300;2024-01-07T11:49:00;2.80;99.90
19538;DHT22;9914;51.008;4.300;2024-01-07T11:51:28;2.60;99.90
19538;DHT22;9914;51.008;4.300;2024-01-07T11:53:54;2.50;99.90
19538;DHT22;9914;51.008;4.300;2024-01-07T11:56:20;2.50;99.90
19538;DHT22;9914;51.008;4.300;2024-01-07T11:58:46;2.70;99.90
19538;DHT22;9914;51.008;4.300;2024-01-07T12:01:14;2.80;99.90
19538;DHT22;9914;51.008;4.300;2024-01-07T12:03:39;2.70;99.90
19538;DHT22;9914;51.008;4.300;2024-01-07T12:06:06;2.80;99.90
19538;DHT22;9914;51.008;4.300;2024-01-07T12:08:32;2.80;99.90
19538;DHT22;9914;51.008;4.300;2024-01-07T12:10:59;2.80;99.90
19538;DHT22;9914;51.008;4.300;2024-01-07T12:13:25;2.70;99.90
19538;DHT22;9914;51.008;4.300;2024-01-07T12:15:51;2.80;99.90
19538;DHT22;9914;51.008;4.300;2024-01-07T12:18:17;2.60;99.90
19538;DHT22;9914;51.008;4.300;2024-01-07T12:20:54;2.60;99.90
19538;DHT22;9914;51.008;4.300;2024-01-07T12:23:20;2.60;99.90
19538;DHT22;9914;51.008;4.300;2024-01-07T12:25:46;2.50;99.90
19538;DHT22;9914;51.008;4.300;2024-01-07T12:28:11;2.60;99.90
19538;DHT22;9914;51.008;4.300;2024-01-07T12:30:37;2.70;99.90
19538;DHT22;9914;51.008;4.300;2024-01-07T12:33:05;2.80;99.90
19538;DHT22;9914;51.008;4.300;2024-01-07T12:35:34;2.90;99.90
19538;DHT22;9914;51.008;4.300;2024-01-07T12:38:00;2.90;99.90
19538;DHT22;9914;51.008;4.300;2024-01-07T12:40:25;2.80;99.90
19538;DHT22;9914;51.008;4.300;2024-01-07T12:42:52;2.70;99.90
19538;DHT22;9914;51.008;4.300;2024-01-07T12:45:18;2.80;99.90
19538;DHT22;9914;51.008;4.300;2024-01-07T12:47:44;3.00;99.90
19538;DHT22;9914;51.008;4.300;2024-01-07T12:50:11;3.20;99.90
19538;DHT22;9914;51.008;4.300;2024-01-07T12:52:38;3.40;99.90
19538;DHT22;9914;51.008;4.300;2024-01-07T12:55:05;3.30;99.90
19538;DHT22;9914;51.008;4.300;2024-01-07T12:57:31;3.20;99.90
19538;DHT22;9914;51.008;4.300;2024-01-07T12:59:57;3.20;99.90
19538;DHT22;9914;51.008;4.300;2024-01-07T13:02:23;3.00;99.90
19538;DHT22;9914;51.008;4.300;2024-01-07T13:04:49;3.00;99.90
19538;DHT22;9914;51.008;4.300;2024-01-07T13:07:15;3.20;99.90
19538;DHT22;9914;51.008;4.300;2024-01-07T13:09:41;3.50;99.90
19538;DHT22;9914;51.008;4.300;2024-01-07T13:12:06;3.50;99.90
19538;DHT22;9914;51.008;4.300;2024-01-07T13:14:32;3.40;99.90
19538;DHT22;9914;51.008;4.300;2024-01-07T13:16:58;3.40;99.90
19538;DHT22;9914;51.008;4.300;2024-01-07T13:19:24;3.20;99.90
19538;DHT22;9914;51.008;4.300;2024-01-07T13:21:50;3.20;99.90
19538;DHT22;9914;51.008;4.300;2024-01-07T13:24:16;2.80;99.90
19538;DHT22;9914;51.008;4.300;2024-01-07T13:26:42;2.80;99.90
19538;DHT22;9914;51.008;4.300;2024-01-07T13:29:07;2.90;99.90
19538;DHT22;9914;51.008;4.300;2024-01-07T13:31:33;3.00;99.90
19538;DHT22;9914;51.008;4.300;2024-01-07T13:33:58;3.10;99.90
19538;DHT22;9914;51.008;4.300;2024-01-07T13:36:24;3.00;99.90
19538;DHT22;9914;51.008;4.300;2024-01-07T13:38:50;3.20;99.90
19538;DHT22;9914;51.008;4.300;2024-01-07T13:41:16;3.00;99.90
19538;DHT22;9914;51.008;4.300;2024-01-07T13:43:42;2.70;99.90
19538;DHT22;9914;51.008;4.300;2024-01-07T13:46:08;2.70;99.90
19538;DHT22;9914;51.008;4.300;2024-01-07T13:48:35;2.60;99.90
19538;DHT22;9914;51.008;4.300;2024-01-07T13:51:00;2.60;99.90
19538;DHT22;9914;51.008;4.300;2024-01-07T13:53:28;2.50;99.90
19538;DHT22;9914;51.008;4.300;2024-01-07T13:55:53;2.40;99.90
19538;DHT22;9914;51.008;4.300;2024-01-07T13:58:19;2.40;99.90
19538;DHT22;9914;51.008;4.300;2024-01-07T14:00:45;2.40;99.90
19538;DHT22;9914;51.008;4.300;2024-01-07T14:03:11;2.60;99.90
19538;DHT22;9914;51.008;4.300;2024-01-07T14:05:36;2.40;99.90
19538;DHT22;9914;51.008;4.300;2024-01-07T14:08:02;2.60;99.90
19538;DHT22;9914;51.008;4.300;2024-01-07T14:10:28;2.60;99.90
19538;DHT22;9914;51.008;4.300;2024-01-07T14:12:54;2.80;99.90
19538;DHT22;9914;51.008;4.300;2024-01-07T14:15:20;2.70;99.90
19538;DHT22;9914;51.008;4.300;2024-01-07T14:17:45;2.60;99.90
19538;DHT22;9914;51.008;4.300;2024-01-07T14:20:11;2.70;99.90
19538;DHT22;9914;51.008;4.300;2024-01-07T14:22:37;2.70;99.90
19538;DHT22;9914;51.008;4.300;2024-01-07T14:25:03;2.60;99.90
19538;DHT22;9914;51.008;4.300;2024-01-07T14:27:29;2.50;99.90
19538;DHT22;9914;51.008;4.300;2024-01-07T14:29:54;2.60;99.90
19538;DHT22;9914;51.008;4.300;2024-01-07T14:32:21;2.50;99.90
19538;DHT22;9914;51.008;4.300;2024-01-07T14:34:47;2.40;99.90
19538;DHT22;9914;51.008;4.300;2024-01-07T14:37:15;2.30;99.90
19538;DHT22;9914;51.008;4.300;2024-01-07T14:39:40;2.40;99.90
19538;DHT22;9914;51.008;4.300;2024-01-07T14:42:06;2.40;99.90
19538;DHT22;9914;51.008;4.300;2024-01-07T14:44:32;2.40;99.90
19538;DHT22;9914;51.008;4.300;2024-01-07T14:46:58;2.30;99.90
19538;DHT22;9914;51.008;4.300;2024-01-07T14:49:24;2.40;99.90
19538;DHT22;9914;51.008;4.300;2024-01-07T14:51:50;2.50;99.90
19538;DHT22;9914;51.008;4.300;2024-01-07T14:54:16;2.50;99.90
19538;DHT22;9914;51.008;4.300;2024-01-07T14:56:41;2.80;99.90
19538;DHT22;9914;51.008;4.300;2024-01-07T14:59:08;2.60;99.90
19538;DHT22;9914;51.008;4.300;2024-01-07T15:01:34;2.60;99.90
19538;DHT22;9914;51.008;4.300;2024-01-07T15:03:59;2.50;99.90
19538;DHT22;9914;51.008;4.300;2024-01-07T15:06:25;2.50;99.90
19538;DHT22;9914;51.008;4.300;2024-01-07T15:08:52;2.80;99.90
19538;DHT22;9914;51.008;4.300;2024-01-07T15:11:19;2.60;99.90
19538;DHT22;9914;51.008;4.300;2024-01-07T15:13:45;2.60;99.90
19538;DHT22;9914;51.008;4.300;2024-01-07T15:16:11;2.50;99.90
19538;DHT22;9914;51.008;4.300;2024-01-07T15:18:36;2.40;99.90
19538;DHT22;9914;51.008;4.300;2024-01-07T15:21:03;2.30;99.90
19538;DHT22;9914;51.008;4.300;2024-01-07T15:23:29;2.40;99.90
19538;DHT22;9914;51.008;4.300;2024-01-07T15:25:54;2.30;99.90
19538;DHT22;9914;51.008;4.300;2024-01-07T15:28:20;2.30;99.90
19538;DHT22;9914;51.008;4.300;2024-01-07T15:30:46;2.30;99.90
19538;DHT22;9914;51.008;4.300;2024-01-07T15:33:13;2.20;99.90
19538;DHT22;9914;51.008;4.300;2024-01-07T15:35:38;2.20;99.90
19538;DHT22;9914;51.008;4.300;2024-01-07T15:38:04;2.20;99.90
19538;DHT22;9914;51.008;4.300;2024-01-07T15:40:31;2.20;99.90
19538;DHT22;9914;51.008;4.300;2024-01-07T15:42:58;2.10;99.90
19538;DHT22;9914;51.008;4.300;2024-01-07T15:45:24;2.10;99.90
19538;DHT22;9914;51.008;4.300;2024-01-07T15:47:50;2.10;99.90
19538;DHT22;9914;51.008;4.300;2024-01-07T15:50:16;2.00;99.90
19538;DHT22;9914;51.008;4.300;2024-01-07T15:52:42;2.00;99.90
19538;DHT22;9914;51.008;4.300;2024-01-07T15:55:13;1.90;99.90
19538;DHT22;9914;51.008;4.300;2024-01-07T15:57:40;1.90;99.90
19538;DHT22;9914;51.008;4.300;2024-01-07T16:00:08;1.90;99.90
19538;DHT22;9914;51.008;4.300;2024-01-07T16:02:33;1.90;99.90
19538;DHT22;9914;51.008;4.300;2024-01-07T16:04:59;1.70;99.90